sensor_id;sensor_type;location;lat;lon;timestamp;P1;durP1;ratioP1;P2;durP2;ratioP2
20482;SDS011;10400;53.198;6.592;2022-12-16T00:01:10;35.40;;;21.97;;
20482;SDS011;10400;53.198;6.592;2022-12-16T00:03:46;35.70;;;21.63;;
20482;SDS011;10400;53.198;6.592;2022-12-16T00:06:16;35.50;;;22.37;;
20482;SDS011;10400;53.198;6.592;2022-12-16T00:08:42;34.90;;;20.60;;
20482;SDS011;10400;53.198;6.592;2022-12-16T00:11:07;45.23;;;22.40;;
20482;SDS011;10400;53.198;6.592;2022-12-16T00:13:34;32.03;;;20.23;;
20482;SDS011;10400;53.198;6.592;2022-12-16T00:16:05;33.80;;;21.90;;
20482;SDS011;10400;53.198;6.592;2022-12-16T00:18:32;31.47;;;20.53;;
20482;SDS011;10400;53.198;6.592;2022-12-16T00:20:59;37.57;;;22.77;;
20482;SDS011;10400;53.198;6.592;2022-12-16T00:23:24;35.60;;;21.70;;
20482;SDS011;10400;53.198;6.592;2022-12-16T00:25:51;27.63;;;18.80;;
20482;SDS011;10400;53.198;6.592;2022-12-16T00:28:17;32.90;;;20.10;;
20482;SDS011;10400;53.198;6.592;2022-12-16T00:30:47;33.03;;;18.57;;
20482;SDS011;10400;53.198;6.592;2022-12-16T00:33:17;35.63;;;19.07;;
20482;SDS011;10400;53.198;6.592;2022-12-16T00:35:43;32.97;;;18.40;;
20482;SDS011;10400;53.198;6.592;2022-12-16T00:38:09;32.07;;;18.93;;
20482;SDS011;10400;53.198;6.592;2022-12-16T00:40:35;27.40;;;17.67;;
20482;SDS011;10400;53.198;6.592;2022-12-16T00:43:00;28.37;;;15.97;;
20482;SDS011;10400;53.198;6.592;2022-12-16T00:45:26;31.33;;;14.77;;
20482;SDS011;10400;53.198;6.592;2022-12-16T00:47:52;24.83;;;13.20;;
20482;SDS011;10400;53.198;6.592;2022-12-16T00:50:18;25.57;;;12.50;;
20482;SDS011;10400;53.198;6.592;2022-12-16T00:52:44;20.83;;;11.47;;
20482;SDS011;10400;53.198;6.592;2022-12-16T00:55:11;17.20;;;9.57;;
20482;SDS011;10400;53.198;6.592;2022-12-16T00:57:37;15.60;;;8.23;;
20482;SDS011;10400;53.198;6.592;2022-12-16T01:00:03;12.63;;;7.53;;
20482;SDS011;10400;53.198;6.592;2022-12-16T01:02:30;12.03;;;6.93;;
20482;SDS011;10400;53.198;6.592;2022-12-16T01:04:56;14.87;;;6.40;;
20482;SDS011;10400;53.198;6.592;2022-12-16T01:07:22;14.43;;;6.43;;
20482;SDS011;10400;53.198;6.592;2022-12-16T01:09:47;18.63;;;6.23;;
20482;SDS011;10400;53.198;6.592;2022-12-16T01:12:13;12.20;;;6.73;;
20482;SDS011;10400;53.198;6.592;2022-12-16T01:14:38;13.60;;;5.73;;
20482;SDS011;10400;53.198;6.592;2022-12-16T01:17:04;14.60;;;5.17;;
20482;SDS011;10400;53.198;6.592;2022-12-16T01:19:30;10.67;;;5.00;;
20482;SDS011;10400;53.198;6.592;2022-12-16T01:21:56;9.67;;;4.33;;
20482;SDS011;10400;53.198;6.592;2022-12-16T01:24:21;9.97;;;4.43;;
20482;SDS011;10400;53.198;6.592;2022-12-16T01:26:47;7.63;;;4.77;;
20482;SDS011;10400;53.198;6.592;2022-12-16T01:29:13;7.90;;;4.03;;
20482;SDS011;10400;53.198;6.592;2022-12-16T01:31:38;7.67;;;3.97;;
20482;SDS011;10400;53.198;6.592;2022-12-16T01:34:04;10.47;;;3.80;;
20482;SDS011;10400;53.198;6.592;2022-12-16T01:36:30;8.07;;;3.90;;
20482;SDS011;10400;53.198;6.592;2022-12-16T01:38:55;10.13;;;4.23;;
20482;SDS011;10400;53.198;6.592;2022-12-16T01:41:21;5.80;;;3.60;;
20482;SDS011;10400;53.198;6.592;2022-12-16T01:43:47;6.23;;;3.47;;
20482;SDS011;10400;53.198;6.592;2022-12-16T01:48:51;8.43;;;3.57;;
20482;SDS011;10400;53.198;6.592;2022-12-16T01:51:27;8.57;;;3.90;;
20482;SDS011;10400;53.198;6.592;2022-12-16T01:56:29;4.40;;;3.13;;
20482;SDS011;10400;53.198;6.592;2022-12-16T01:58:57;6.60;;;3.20;;
20482;SDS011;10400;53.198;6.592;2022-12-16T02:01:24;7.07;;;3.20;;
20482;SDS011;10400;53.198;6.592;2022-12-16T02:03:50;5.57;;;3.07;;
20482;SDS011;10400;53.198;6.592;2022-12-16T02:06:18;4.37;;;2.73;;
20482;SDS011;10400;53.198;6.592;2022-12-16T02:08:44;7.87;;;2.87;;
20482;SDS011;10400;53.198;6.592;2022-12-16T02:35:27;6.17;;;3.43;;
20482;SDS011;10400;53.198;6.592;2022-12-16T02:41:21;7.20;;;3.73;;
20482;SDS011;10400;53.198;6.592;2022-12-16T02:44:00;8.53;;;3.57;;
20482;SDS011;10400;53.198;6.592;2022-12-16T02:46:32;4.87;;;3.30;;
20482;SDS011;10400;53.198;6.592;2022-12-16T02:49:50;7.07;;;3.63;;
20482;SDS011;10400;53.198;6.592;2022-12-16T02:51:50;10.50;;;3.80;;
20482;SDS011;10400;53.198;6.592;2022-12-16T02:54:17;7.47;;;4.53;;
20482;SDS011;10400;53.198;6.592;2022-12-16T02:59:29;7.60;;;4.10;;
20482;SDS011;10400;53.198;6.592;2022-12-16T03:07:13;9.67;;;4.90;;
20482;SDS011;10400;53.198;6.592;2022-12-16T03:09:41;8.50;;;5.20;;
20482;SDS011;10400;53.198;6.592;2022-12-16T03:12:11;10.33;;;4.93;;
20482;SDS011;10400;53.198;6.592;2022-12-16T03:14:41;10.07;;;4.93;;
20482;SDS011;10400;53.198;6.592;2022-12-16T03:17:08;13.33;;;6.27;;
20482;SDS011;10400;53.198;6.592;2022-12-16T03:19:35;12.90;;;6.40;;
20482;SDS011;10400;53.198;6.592;2022-12-16T03:22:10;12.77;;;6.77;;
20482;SDS011;10400;53.198;6.592;2022-12-16T03:24:38;11.03;;;7.63;;
20482;SDS011;10400;53.198;6.592;2022-12-16T03:27:17;11.83;;;7.90;;
20482;SDS011;10400;53.198;6.592;2022-12-16T03:32:39;21.57;;;11.40;;
20482;SDS011;10400;53.198;6.592;2022-12-16T03:37:51;16.97;;;12.67;;
20482;SDS011;10400;53.198;6.592;2022-12-16T03:40:21;22.80;;;14.90;;
20482;SDS011;10400;53.198;6.592;2022-12-16T03:42:49;22.40;;;15.17;;
20482;SDS011;10400;53.198;6.592;2022-12-16T03:45:18;29.40;;;17.70;;
20482;SDS011;10400;53.198;6.592;2022-12-16T03:47:52;35.97;;;19.80;;
20482;SDS011;10400;53.198;6.592;2022-12-16T03:50:22;31.10;;;19.33;;
20482;SDS011;10400;53.198;6.592;2022-12-16T03:52:52;30.80;;;19.20;;
20482;SDS011;10400;53.198;6.592;2022-12-16T03:55:18;31.53;;;20.57;;
20482;SDS011;10400;53.198;6.592;2022-12-16T03:57:43;38.13;;;21.17;;
20482;SDS011;10400;53.198;6.592;2022-12-16T04:00:09;38.23;;;21.70;;
20482;SDS011;10400;53.198;6.592;2022-12-16T04:02:35;34.07;;;21.43;;
20482;SDS011;10400;53.198;6.592;2022-12-16T04:05:01;32.73;;;21.50;;
20482;SDS011;10400;53.198;6.592;2022-12-16T04:07:27;33.20;;;20.30;;
20482;SDS011;10400;53.198;6.592;2022-12-16T04:09:53;35.27;;;20.77;;
20482;SDS011;10400;53.198;6.592;2022-12-16T04:12:18;34.73;;;21.13;;
20482;SDS011;10400;53.198;6.592;2022-12-16T04:15:03;36.20;;;22.53;;
20482;SDS011;10400;53.198;6.592;2022-12-16T04:17:48;36.83;;;21.77;;
20482;SDS011;10400;53.198;6.592;2022-12-16T04:20:35;38.93;;;23.27;;
20482;SDS011;10400;53.198;6.592;2022-12-16T04:23:22;41.67;;;23.90;;
20482;SDS011;10400;53.198;6.592;2022-12-16T04:26:08;42.37;;;24.47;;
20482;SDS011;10400;53.198;6.592;2022-12-16T04:28:34;47.43;;;25.57;;
20482;SDS011;10400;53.198;6.592;2022-12-16T04:31:00;48.63;;;26.03;;
20482;SDS011;10400;53.198;6.592;2022-12-16T04:33:26;44.80;;;24.87;;
20482;SDS011;10400;53.198;6.592;2022-12-16T04:36:10;46.20;;;26.57;;
20482;SDS011;10400;53.198;6.592;2022-12-16T04:38:54;45.97;;;25.30;;
20482;SDS011;10400;53.198;6.592;2022-12-16T04:41:38;45.93;;;25.87;;
20482;SDS011;10400;53.198;6.592;2022-12-16T04:44:22;46.20;;;26.00;;
20482;SDS011;10400;53.198;6.592;2022-12-16T04:47:06;48.00;;;25.57;;
20482;SDS011;10400;53.198;6.592;2022-12-16T04:49:50;49.20;;;27.40;;
20482;SDS011;10400;53.198;6.592;2022-12-16T04:52:34;56.73;;;29.30;;
20482;SDS011;10400;53.198;6.592;2022-12-16T04:55:18;46.10;;;26.77;;
20482;SDS011;10400;53.198;6.592;2022-12-16T04:58:02;46.50;;;26.30;;
20482;SDS011;10400;53.198;6.592;2022-12-16T05:00:47;51.00;;;27.60;;
20482;SDS011;10400;53.198;6.592;2022-12-16T05:03:32;50.53;;;28.20;;
20482;SDS011;10400;53.198;6.592;2022-12-16T05:06:17;50.63;;;28.53;;
20482;SDS011;10400;53.198;6.592;2022-12-16T05:09:02;49.33;;;28.73;;
20482;SDS011;10400;53.198;6.592;2022-12-16T05:11:46;53.60;;;30.43;;
20482;SDS011;10400;53.198;6.592;2022-12-16T05:14:31;57.10;;;29.37;;
20482;SDS011;10400;53.198;6.592;2022-12-16T05:17:15;48.63;;;28.73;;
20482;SDS011;10400;53.198;6.592;2022-12-16T05:19:59;56.50;;;31.73;;
20482;SDS011;10400;53.198;6.592;2022-12-16T05:22:44;59.50;;;31.37;;
20482;SDS011;10400;53.198;6.592;2022-12-16T05:25:28;62.00;;;32.03;;
20482;SDS011;10400;53.198;6.592;2022-12-16T05:28:13;56.67;;;30.83;;
20482;SDS011;10400;53.198;6.592;2022-12-16T05:30:57;59.80;;;31.30;;
20482;SDS011;10400;53.198;6.592;2022-12-16T05:33:41;53.40;;;31.17;;
20482;SDS011;10400;53.198;6.592;2022-12-16T05:36:26;57.30;;;29.90;;
20482;SDS011;10400;53.198;6.592;2022-12-16T05:39:10;48.93;;;30.57;;
20482;SDS011;10400;53.198;6.592;2022-12-16T05:41:54;52.57;;;31.70;;
20482;SDS011;10400;53.198;6.592;2022-12-16T05:44:39;61.77;;;31.20;;
20482;SDS011;10400;53.198;6.592;2022-12-16T05:47:26;51.43;;;30.47;;
20482;SDS011;10400;53.198;6.592;2022-12-16T05:50:11;56.47;;;31.13;;
20482;SDS011;10400;53.198;6.592;2022-12-16T05:52:56;59.30;;;32.73;;
20482;SDS011;10400;53.198;6.592;2022-12-16T05:55:40;55.30;;;29.40;;
20482;SDS011;10400;53.198;6.592;2022-12-16T05:58:26;60.33;;;30.03;;
20482;SDS011;10400;53.198;6.592;2022-12-16T06:01:11;54.30;;;30.40;;
20482;SDS011;10400;53.198;6.592;2022-12-16T06:03:56;49.67;;;29.23;;
20482;SDS011;10400;53.198;6.592;2022-12-16T06:06:41;53.07;;;29.67;;
20482;SDS011;10400;53.198;6.592;2022-12-16T06:09:25;55.10;;;29.37;;
20482;SDS011;10400;53.198;6.592;2022-12-16T06:12:10;58.50;;;31.73;;
20482;SDS011;10400;53.198;6.592;2022-12-16T06:14:55;54.20;;;30.20;;
20482;SDS011;10400;53.198;6.592;2022-12-16T06:17:46;59.13;;;30.47;;
20482;SDS011;10400;53.198;6.592;2022-12-16T06:20:31;53.53;;;28.47;;
20482;SDS011;10400;53.198;6.592;2022-12-16T06:23:16;57.63;;;30.67;;
20482;SDS011;10400;53.198;6.592;2022-12-16T06:26:20;58.30;;;30.67;;
20482;SDS011;10400;53.198;6.592;2022-12-16T06:29:04;57.40;;;30.57;;
20482;SDS011;10400;53.198;6.592;2022-12-16T06:31:51;49.63;;;29.90;;
20482;SDS011;10400;53.198;6.592;2022-12-16T06:34:35;51.77;;;29.93;;
20482;SDS011;10400;53.198;6.592;2022-12-16T06:37:19;53.97;;;29.33;;
20482;SDS011;10400;53.198;6.592;2022-12-16T06:40:04;48.80;;;28.77;;
20482;SDS011;10400;53.198;6.592;2022-12-16T06:42:48;58.33;;;30.87;;
20482;SDS011;10400;53.198;6.592;2022-12-16T06:45:32;53.30;;;29.77;;
20482;SDS011;10400;53.198;6.592;2022-12-16T06:48:16;52.80;;;29.60;;
20482;SDS011;10400;53.198;6.592;2022-12-16T06:51:00;51.50;;;29.93;;
20482;SDS011;10400;53.198;6.592;2022-12-16T06:53:45;57.13;;;29.53;;
20482;SDS011;10400;53.198;6.592;2022-12-16T06:56:29;48.67;;;29.20;;
20482;SDS011;10400;53.198;6.592;2022-12-16T06:59:13;50.10;;;29.33;;
20482;SDS011;10400;53.198;6.592;2022-12-16T07:01:57;52.87;;;29.87;;
20482;SDS011;10400;53.198;6.592;2022-12-16T07:04:41;51.07;;;29.53;;
20482;SDS011;10400;53.198;6.592;2022-12-16T07:07:25;53.53;;;29.40;;
20482;SDS011;10400;53.198;6.592;2022-12-16T07:10:09;50.77;;;28.53;;
20482;SDS011;10400;53.198;6.592;2022-12-16T07:12:58;52.33;;;29.27;;
20482;SDS011;10400;53.198;6.592;2022-12-16T07:15:42;51.40;;;30.03;;
20482;SDS011;10400;53.198;6.592;2022-12-16T07:18:28;50.30;;;28.67;;
20482;SDS011;10400;53.198;6.592;2022-12-16T07:21:13;57.20;;;29.37;;
20482;SDS011;10400;53.198;6.592;2022-12-16T07:23:57;56.20;;;29.77;;
20482;SDS011;10400;53.198;6.592;2022-12-16T07:26:41;53.33;;;30.23;;
20482;SDS011;10400;53.198;6.592;2022-12-16T07:29:25;55.37;;;30.37;;
20482;SDS011;10400;53.198;6.592;2022-12-16T07:32:09;50.13;;;30.67;;
20482;SDS011;10400;53.198;6.592;2022-12-16T07:35:04;52.80;;;29.10;;
20482;SDS011;10400;53.198;6.592;2022-12-16T07:37:48;53.27;;;30.10;;
20482;SDS011;10400;53.198;6.592;2022-12-16T07:40:33;56.37;;;30.60;;
20482;SDS011;10400;53.198;6.592;2022-12-16T07:43:17;54.07;;;30.40;;
20482;SDS011;10400;53.198;6.592;2022-12-16T07:46:01;53.30;;;30.83;;
20482;SDS011;10400;53.198;6.592;2022-12-16T07:48:45;55.80;;;30.77;;
20482;SDS011;10400;53.198;6.592;2022-12-16T07:51:32;50.70;;;29.80;;
20482;SDS011;10400;53.198;6.592;2022-12-16T07:54:16;54.87;;;30.67;;
20482;SDS011;10400;53.198;6.592;2022-12-16T07:57:00;51.07;;;29.00;;
20482;SDS011;10400;53.198;6.592;2022-12-16T07:59:45;50.37;;;30.00;;
20482;SDS011;10400;53.198;6.592;2022-12-16T08:02:29;52.13;;;29.27;;
20482;SDS011;10400;53.198;6.592;2022-12-16T08:05:14;56.73;;;30.53;;
20482;SDS011;10400;53.198;6.592;2022-12-16T08:07:58;54.57;;;29.70;;
20482;SDS011;10400;53.198;6.592;2022-12-16T08:10:42;54.80;;;30.53;;
20482;SDS011;10400;53.198;6.592;2022-12-16T08:13:26;50.93;;;29.90;;
20482;SDS011;10400;53.198;6.592;2022-12-16T08:16:10;52.43;;;29.53;;
20482;SDS011;10400;53.198;6.592;2022-12-16T08:18:54;53.87;;;29.13;;
20482;SDS011;10400;53.198;6.592;2022-12-16T08:21:38;58.00;;;29.87;;
20482;SDS011;10400;53.198;6.592;2022-12-16T08:24:22;52.93;;;28.90;;
20482;SDS011;10400;53.198;6.592;2022-12-16T08:27:06;51.97;;;29.13;;
20482;SDS011;10400;53.198;6.592;2022-12-16T08:29:50;53.57;;;30.60;;
20482;SDS011;10400;53.198;6.592;2022-12-16T08:32:34;58.53;;;30.07;;
20482;SDS011;10400;53.198;6.592;2022-12-16T08:35:19;59.53;;;30.50;;
20482;SDS011;10400;53.198;6.592;2022-12-16T08:38:03;66.03;;;32.47;;
20482;SDS011;10400;53.198;6.592;2022-12-16T08:40:47;64.07;;;31.63;;
20482;SDS011;10400;53.198;6.592;2022-12-16T08:43:32;60.80;;;30.97;;
20482;SDS011;10400;53.198;6.592;2022-12-16T08:46:18;61.57;;;29.83;;
20482;SDS011;10400;53.198;6.592;2022-12-16T08:49:02;65.03;;;30.73;;
20482;SDS011;10400;53.198;6.592;2022-12-16T08:51:47;60.43;;;29.90;;
20482;SDS011;10400;53.198;6.592;2022-12-16T08:54:31;58.20;;;30.00;;
20482;SDS011;10400;53.198;6.592;2022-12-16T08:57:15;65.70;;;32.00;;
20482;SDS011;10400;53.198;6.592;2022-12-16T08:59:59;60.80;;;30.17;;
20482;SDS011;10400;53.198;6.592;2022-12-16T09:02:43;58.60;;;29.53;;
20482;SDS011;10400;53.198;6.592;2022-12-16T09:05:27;63.53;;;31.83;;
20482;SDS011;10400;53.198;6.592;2022-12-16T09:08:12;69.27;;;31.83;;
20482;SDS011;10400;53.198;6.592;2022-12-16T09:10:59;67.43;;;33.10;;
20482;SDS011;10400;53.198;6.592;2022-12-16T09:13:44;66.83;;;32.47;;
20482;SDS011;10400;53.198;6.592;2022-12-16T09:16:28;62.40;;;31.00;;
20482;SDS011;10400;53.198;6.592;2022-12-16T09:19:13;64.40;;;31.27;;
20482;SDS011;10400;53.198;6.592;2022-12-16T09:21:57;66.03;;;32.13;;
20482;SDS011;10400;53.198;6.592;2022-12-16T09:24:41;62.90;;;32.40;;
20482;SDS011;10400;53.198;6.592;2022-12-16T09:27:25;68.30;;;34.83;;
20482;SDS011;10400;53.198;6.592;2022-12-16T09:30:09;68.43;;;33.27;;
20482;SDS011;10400;53.198;6.592;2022-12-16T09:32:53;60.37;;;32.77;;
20482;SDS011;10400;53.198;6.592;2022-12-16T09:35:38;61.23;;;31.23;;
20482;SDS011;10400;53.198;6.592;2022-12-16T09:38:22;58.20;;;31.30;;
20482;SDS011;10400;53.198;6.592;2022-12-16T09:41:41;60.30;;;29.40;;
20482;SDS011;10400;53.198;6.592;2022-12-16T09:44:36;63.00;;;31.10;;
20482;SDS011;10400;53.198;6.592;2022-12-16T09:50:45;64.17;;;30.10;;
20482;SDS011;10400;53.198;6.592;2022-12-16T09:53:31;56.63;;;28.97;;
20482;SDS011;10400;53.198;6.592;2022-12-16T09:56:21;59.10;;;30.63;;
20482;SDS011;10400;53.198;6.592;2022-12-16T09:59:14;59.80;;;30.97;;
20482;SDS011;10400;53.198;6.592;2022-12-16T10:02:09;69.80;;;31.13;;
20482;SDS011;10400;53.198;6.592;2022-12-16T10:04:54;64.97;;;31.73;;
20482;SDS011;10400;53.198;6.592;2022-12-16T10:07:39;64.67;;;31.33;;
20482;SDS011;10400;53.198;6.592;2022-12-16T10:10:41;57.93;;;29.93;;
20482;SDS011;10400;53.198;6.592;2022-12-16T10:16:57;65.97;;;31.20;;
20482;SDS011;10400;53.198;6.592;2022-12-16T10:19:59;70.30;;;31.67;;
20482;SDS011;10400;53.198;6.592;2022-12-16T10:23:09;67.43;;;31.87;;
20482;SDS011;10400;53.198;6.592;2022-12-16T10:26:14;61.00;;;30.97;;
20482;SDS011;10400;53.198;6.592;2022-12-16T10:29:11;65.70;;;30.10;;
20482;SDS011;10400;53.198;6.592;2022-12-16T10:32:28;70.03;;;32.70;;
20482;SDS011;10400;53.198;6.592;2022-12-16T10:38:12;70.63;;;32.47;;
20482;SDS011;10400;53.198;6.592;2022-12-16T10:41:22;84.43;;;34.00;;
20482;SDS011;10400;53.198;6.592;2022-12-16T10:44:34;76.37;;;33.40;;
20482;SDS011;10400;53.198;6.592;2022-12-16T10:47:32;79.30;;;33.90;;
20482;SDS011;10400;53.198;6.592;2022-12-16T10:50:17;81.43;;;34.77;;
20482;SDS011;10400;53.198;6.592;2022-12-16T10:53:03;79.07;;;34.03;;
20482;SDS011;10400;53.198;6.592;2022-12-16T10:55:57;84.73;;;34.97;;
20482;SDS011;10400;53.198;6.592;2022-12-16T10:58:55;76.80;;;34.43;;
20482;SDS011;10400;53.198;6.592;2022-12-16T11:01:55;82.80;;;34.37;;
20482;SDS011;10400;53.198;6.592;2022-12-16T11:04:41;74.33;;;32.87;;
20482;SDS011;10400;53.198;6.592;2022-12-16T11:07:27;71.97;;;33.97;;
20482;SDS011;10400;53.198;6.592;2022-12-16T11:10:38;79.43;;;33.07;;
20482;SDS011;10400;53.198;6.592;2022-12-16T11:16:15;73.40;;;32.50;;
20482;SDS011;10400;53.198;6.592;2022-12-16T11:22:20;72.23;;;31.00;;
20482;SDS011;10400;53.198;6.592;2022-12-16T11:25:15;67.87;;;31.97;;
20482;SDS011;10400;53.198;6.592;2022-12-16T11:28:16;73.33;;;32.50;;
20482;SDS011;10400;53.198;6.592;2022-12-16T11:31:20;74.03;;;33.57;;
20482;SDS011;10400;53.198;6.592;2022-12-16T11:34:04;77.20;;;34.43;;
20482;SDS011;10400;53.198;6.592;2022-12-16T11:36:49;73.27;;;32.70;;
20482;SDS011;10400;53.198;6.592;2022-12-16T11:39:33;75.57;;;35.57;;
20482;SDS011;10400;53.198;6.592;2022-12-16T11:42:19;67.37;;;32.33;;
20482;SDS011;10400;53.198;6.592;2022-12-16T11:45:11;71.37;;;33.13;;
20482;SDS011;10400;53.198;6.592;2022-12-16T11:48:02;71.67;;;32.63;;
20482;SDS011;10400;53.198;6.592;2022-12-16T11:50:56;74.67;;;34.07;;
20482;SDS011;10400;53.198;6.592;2022-12-16T11:53:47;77.63;;;34.47;;
20482;SDS011;10400;53.198;6.592;2022-12-16T11:56:43;67.23;;;32.97;;
20482;SDS011;10400;53.198;6.592;2022-12-16T11:59:44;62.73;;;29.97;;
20482;SDS011;10400;53.198;6.592;2022-12-16T12:02:36;72.60;;;34.47;;
20482;SDS011;10400;53.198;6.592;2022-12-16T12:05:27;66.70;;;31.87;;
20482;SDS011;10400;53.198;6.592;2022-12-16T12:11:15;54.93;;;31.17;;
20482;SDS011;10400;53.198;6.592;2022-12-16T12:20:33;62.90;;;31.90;;
20482;SDS011;10400;53.198;6.592;2022-12-16T12:23:39;67.13;;;33.30;;
20482;SDS011;10400;53.198;6.592;2022-12-16T12:26:36;64.83;;;33.10;;
20482;SDS011;10400;53.198;6.592;2022-12-16T12:32:24;74.30;;;33.33;;
20482;SDS011;10400;53.198;6.592;2022-12-16T12:35:23;64.90;;;31.47;;
20482;SDS011;10400;53.198;6.592;2022-12-16T12:41:26;66.47;;;32.73;;
20482;SDS011;10400;53.198;6.592;2022-12-16T12:47:15;65.13;;;33.07;;
20482;SDS011;10400;53.198;6.592;2022-12-16T12:50:09;66.53;;;32.53;;
20482;SDS011;10400;53.198;6.592;2022-12-16T12:58:47;69.13;;;33.73;;
20482;SDS011;10400;53.198;6.592;2022-12-16T13:01:35;69.33;;;32.63;;
20482;SDS011;10400;53.198;6.592;2022-12-16T13:04:25;67.73;;;31.87;;
20482;SDS011;10400;53.198;6.592;2022-12-16T13:07:11;65.00;;;31.67;;
20482;SDS011;10400;53.198;6.592;2022-12-16T13:16:10;70.63;;;32.20;;
20482;SDS011;10400;53.198;6.592;2022-12-16T13:22:30;67.27;;;31.63;;
20482;SDS011;10400;53.198;6.592;2022-12-16T13:28:24;65.87;;;31.90;;
20482;SDS011;10400;53.198;6.592;2022-12-16T13:31:09;69.17;;;33.43;;
20482;SDS011;10400;53.198;6.592;2022-12-16T13:33:56;66.03;;;31.63;;
20482;SDS011;10400;53.198;6.592;2022-12-16T13:36:50;67.93;;;33.13;;
20482;SDS011;10400;53.198;6.592;2022-12-16T13:39:36;64.00;;;30.87;;
20482;SDS011;10400;53.198;6.592;2022-12-16T13:45:35;67.50;;;32.83;;
20482;SDS011;10400;53.198;6.592;2022-12-16T13:48:30;71.40;;;33.10;;
20482;SDS011;10400;53.198;6.592;2022-12-16T13:54:19;74.50;;;34.30;;
20482;SDS011;10400;53.198;6.592;2022-12-16T13:57:22;65.20;;;32.53;;
20482;SDS011;10400;53.198;6.592;2022-12-16T14:00:15;68.27;;;33.37;;
20482;SDS011;10400;53.198;6.592;2022-12-16T14:03:20;68.30;;;34.33;;
20482;SDS011;10400;53.198;6.592;2022-12-16T14:06:11;67.03;;;33.60;;
20482;SDS011;10400;53.198;6.592;2022-12-16T14:09:02;74.17;;;36.23;;
20482;SDS011;10400;53.198;6.592;2022-12-16T14:11:58;65.03;;;32.50;;
20482;SDS011;10400;53.198;6.592;2022-12-16T14:14:54;67.90;;;35.13;;
20482;SDS011;10400;53.198;6.592;2022-12-16T14:17:55;71.70;;;34.73;;
20482;SDS011;10400;53.198;6.592;2022-12-16T14:20:48;73.03;;;33.87;;
20482;SDS011;10400;53.198;6.592;2022-12-16T14:23:51;77.23;;;35.60;;
20482;SDS011;10400;53.198;6.592;2022-12-16T14:26:41;73.97;;;36.17;;
20482;SDS011;10400;53.198;6.592;2022-12-16T14:29:30;73.50;;;36.07;;
20482;SDS011;10400;53.198;6.592;2022-12-16T14:35:05;76.80;;;36.13;;
20482;SDS011;10400;53.198;6.592;2022-12-16T14:37:56;73.23;;;33.37;;
20482;SDS011;10400;53.198;6.592;2022-12-16T14:40:41;71.60;;;34.83;;
20482;SDS011;10400;53.198;6.592;2022-12-16T14:43:25;78.00;;;37.07;;
20482;SDS011;10400;53.198;6.592;2022-12-16T14:49:18;78.00;;;37.03;;
20482;SDS011;10400;53.198;6.592;2022-12-16T14:55:13;79.00;;;36.23;;
20482;SDS011;10400;53.198;6.592;2022-12-16T14:58:00;78.20;;;36.17;;
20482;SDS011;10400;53.198;6.592;2022-12-16T15:00:49;73.57;;;35.03;;
20482;SDS011;10400;53.198;6.592;2022-12-16T15:03:39;80.60;;;35.47;;
20482;SDS011;10400;53.198;6.592;2022-12-16T15:06:29;80.97;;;34.93;;
20482;SDS011;10400;53.198;6.592;2022-12-16T15:09:29;77.47;;;35.30;;
20482;SDS011;10400;53.198;6.592;2022-12-16T15:12:18;76.30;;;34.83;;
20482;SDS011;10400;53.198;6.592;2022-12-16T15:15:06;74.63;;;32.87;;
20482;SDS011;10400;53.198;6.592;2022-12-16T15:17:55;74.27;;;32.30;;
20482;SDS011;10400;53.198;6.592;2022-12-16T15:20:59;75.93;;;34.03;;
20482;SDS011;10400;53.198;6.592;2022-12-16T15:23:43;78.87;;;34.53;;
20482;SDS011;10400;53.198;6.592;2022-12-16T15:26:29;73.70;;;33.77;;
20482;SDS011;10400;53.198;6.592;2022-12-16T15:32:27;71.53;;;33.03;;
20482;SDS011;10400;53.198;6.592;2022-12-16T15:35:26;70.03;;;34.27;;
20482;SDS011;10400;53.198;6.592;2022-12-16T15:38:33;71.40;;;33.40;;
20482;SDS011;10400;53.198;6.592;2022-12-16T15:41:31;67.13;;;32.93;;
20482;SDS011;10400;53.198;6.592;2022-12-16T15:44:18;72.80;;;35.63;;
20482;SDS011;10400;53.198;6.592;2022-12-16T15:50:15;79.20;;;37.13;;
20482;SDS011;10400;53.198;6.592;2022-12-16T15:56:14;72.60;;;34.00;;
20482;SDS011;10400;53.198;6.592;2022-12-16T15:59:13;75.47;;;35.53;;
20482;SDS011;10400;53.198;6.592;2022-12-16T16:01:57;78.47;;;36.43;;
20482;SDS011;10400;53.198;6.592;2022-12-16T16:04:47;73.50;;;35.20;;
20482;SDS011;10400;53.198;6.592;2022-12-16T16:07:31;75.70;;;36.27;;
20482;SDS011;10400;53.198;6.592;2022-12-16T16:10:22;77.30;;;36.90;;
20482;SDS011;10400;53.198;6.592;2022-12-16T16:13:08;83.97;;;37.87;;
20482;SDS011;10400;53.198;6.592;2022-12-16T16:15:53;82.53;;;37.07;;
20482;SDS011;10400;53.198;6.592;2022-12-16T16:18:38;76.90;;;36.03;;
20482;SDS011;10400;53.198;6.592;2022-12-16T16:21:23;81.70;;;37.07;;
20482;SDS011;10400;53.198;6.592;2022-12-16T16:24:07;81.10;;;36.20;;
20482;SDS011;10400;53.198;6.592;2022-12-16T16:26:55;75.80;;;36.40;;
20482;SDS011;10400;53.198;6.592;2022-12-16T16:29:42;81.77;;;37.27;;
20482;SDS011;10400;53.198;6.592;2022-12-16T16:32:26;82.50;;;38.63;;
20482;SDS011;10400;53.198;6.592;2022-12-16T16:35:10;81.03;;;37.47;;
20482;SDS011;10400;53.198;6.592;2022-12-16T16:37:54;76.07;;;36.20;;
20482;SDS011;10400;53.198;6.592;2022-12-16T16:40:39;84.97;;;38.43;;
20482;SDS011;10400;53.198;6.592;2022-12-16T16:43:25;82.27;;;37.77;;
20482;SDS011;10400;53.198;6.592;2022-12-16T16:49:03;84.30;;;37.33;;
20482;SDS011;10400;53.198;6.592;2022-12-16T16:51:51;81.50;;;37.00;;
20482;SDS011;10400;53.198;6.592;2022-12-16T16:54:35;85.27;;;38.47;;
20482;SDS011;10400;53.198;6.592;2022-12-16T16:57:19;87.90;;;38.73;;
20482;SDS011;10400;53.198;6.592;2022-12-16T17:00:04;87.23;;;38.07;;
20482;SDS011;10400;53.198;6.592;2022-12-16T17:02:48;80.20;;;36.20;;
20482;SDS011;10400;53.198;6.592;2022-12-16T17:05:32;88.53;;;36.90;;
20482;SDS011;10400;53.198;6.592;2022-12-16T17:08:16;80.37;;;36.90;;
20482;SDS011;10400;53.198;6.592;2022-12-16T17:11:00;84.93;;;36.53;;
20482;SDS011;10400;53.198;6.592;2022-12-16T17:13:45;75.97;;;36.83;;
20482;SDS011;10400;53.198;6.592;2022-12-16T17:16:29;81.53;;;36.10;;
20482;SDS011;10400;53.198;6.592;2022-12-16T17:19:13;86.27;;;37.57;;
20482;SDS011;10400;53.198;6.592;2022-12-16T17:21:57;76.47;;;35.43;;
20482;SDS011;10400;53.198;6.592;2022-12-16T17:24:41;75.67;;;35.17;;
20482;SDS011;10400;53.198;6.592;2022-12-16T17:27:25;77.90;;;34.53;;
20482;SDS011;10400;53.198;6.592;2022-12-16T17:30:12;70.50;;;34.10;;
20482;SDS011;10400;53.198;6.592;2022-12-16T17:32:57;75.30;;;34.80;;
20482;SDS011;10400;53.198;6.592;2022-12-16T17:35:41;80.57;;;33.63;;
20482;SDS011;10400;53.198;6.592;2022-12-16T17:38:25;79.17;;;35.40;;
20482;SDS011;10400;53.198;6.592;2022-12-16T17:41:09;73.13;;;34.73;;
20482;SDS011;10400;53.198;6.592;2022-12-16T17:43:54;73.83;;;34.43;;
20482;SDS011;10400;53.198;6.592;2022-12-16T17:46:38;70.87;;;33.20;;
20482;SDS011;10400;53.198;6.592;2022-12-16T17:49:22;69.93;;;32.87;;
20482;SDS011;10400;53.198;6.592;2022-12-16T17:52:06;69.80;;;33.23;;
20482;SDS011;10400;53.198;6.592;2022-12-16T17:54:50;78.77;;;32.83;;
20482;SDS011;10400;53.198;6.592;2022-12-16T17:57:48;77.00;;;33.53;;
20482;SDS011;10400;53.198;6.592;2022-12-16T18:00:32;73.60;;;34.10;;
20482;SDS011;10400;53.198;6.592;2022-12-16T18:03:18;69.27;;;32.73;;